LOWI Airport Information

Runway Information
Runway 08 Length 6562 ft width 148 ft
Elevation 1906 ft Threshold 339 ft Heading 81
Runway 26 Length 6562 ft Width 148 ft
Elevation 1893 ft Threshold 198 ft Heading 261
Airport Frequencies
Type APP Name APP Frequency 119.275 MHZ
Type ATIS Name ATIS Frequency 126.025 MHZ
Type GND Crew Name Frequency 121.8 MHZ
Type GND Crew Name Frequency 121.9 MHZ
Type TWR Name TWR Frequency 120.1 MHZ
Airport Navaids
Type NDB Name Innsbruck Frequency 420 KHZ
Type NDB Name Kuhtai Frequency 413 KHZ
Airport Weather Information & NOTAM
ADDS - METARS form results

(2004 UTC 22 July 2018)
 
METAR text: LOWI 221950Z VRB01KT 9999 FEW012 SCT040 BKN070 17/15 Q1017 NOSIG
Conditions at: LOWI (INNSBRUCK AIRPOR, AT) observed 1950 UTC 22 July 2018
Temperature: 17.0°C (63°F)
Dewpoint: 15.0°C (59°F) [RH = 88%]
Pressure (altimeter): 30.03 inches Hg (1017.0 mb)
Winds: variable direction winds at 1 MPH (1 knots; 0.5 m/s)
Visibility: 6 or more miles (10+ km)
Ceiling: 7000 feet AGL
Clouds: few clouds at 1200 feet AGL
scattered clouds at 4000 feet AGL
broken clouds at 7000 feet AGL
Weather: no significant weather observed at this time

METAR text: LOWI 221920Z VRB01KT 9999 FEW012 SCT040 BKN070 18/15 Q1016 NOSIG
Conditions at: LOWI (INNSBRUCK AIRPOR, AT) observed 1920 UTC 22 July 2018
Temperature: 18.0°C (64°F)
Dewpoint: 15.0°C (59°F) [RH = 83%]
Pressure (altimeter): 30.00 inches Hg (1016.0 mb)
Winds: variable direction winds at 1 MPH (1 knots; 0.5 m/s)
Visibility: 6 or more miles (10+ km)
Ceiling: 7000 feet AGL
Clouds: few clouds at 1200 feet AGL
scattered clouds at 4000 feet AGL
broken clouds at 7000 feet AGL
Weather: no significant weather observed at this time